Time;durP1;ratioP1;P1;durP2;ratioP2;P2;SDS_P1;SDS_P2;PMS_P1;PMS_P2;Temp;Humidity;BMP_temperature;BMP_pressure;BME280_temperature;BME280_humidity;BME280_pressure;Samples;Min_cycle;Max_cycle;Signal;HPM_P1;HPM_P2
2022/11/05 00:10:30;;;;;;;3.10;2.90;;;;;;;;;;4978977;28;20275;-64
2022/11/05 00:18:31;;;;;;;3.50;3.20;;;;;;;;;;4983294;28;20203;-62
2022/11/05 00:20:59;;;;;;;6.53;3.80;;;;;;;;;;4959390;28;20281;-63
2022/11/05 00:26:16;;;;;;;3.53;3.33;;;;;;;;;;4975141;28;20259;-63
2022/11/05 00:28:43;;;;;;;3.73;3.43;;;;;;;;;;4961976;28;20213;-64
2022/11/05 00:31:12;;;;;;;3.57;3.13;;;;;;;;;;4968782;28;20219;-63
2022/11/05 00:33:40;;;;;;;3.37;3.10;;;;;;;;;;4963378;28;20335;-63
2022/11/05 00:36:08;;;;;;;4.23;3.53;;;;;;;;;;4959200;28;20247;-64
2022/11/05 00:38:36;;;;;;;3.67;3.37;;;;;;;;;;4962771;28;21280;-61
2022/11/05 00:41:04;;;;;;;3.17;2.97;;;;;;;;;;4977395;28;20362;-63
2022/11/05 00:46:17;;;;;;;3.03;2.80;;;;;;;;;;4995956;28;20227;-64
2022/11/05 00:51:31;;;;;;;3.13;2.93;;;;;;;;;;4999766;28;20309;-61
2022/11/05 00:54:02;;;;;;;5.10;4.60;;;;;;;;;;4974064;28;20215;-64
2022/11/05 00:56:30;;;;;;;4.10;3.80;;;;;;;;;;4966817;28;20216;-62
2022/11/05 00:58:57;;;;;;;3.43;2.90;;;;;;;;;;4973630;28;21462;-62
2022/11/05 01:01:24;;;;;;;3.37;2.90;;;;;;;;;;4960568;28;20390;-63
2022/11/05 01:03:53;;;;;;;2.87;2.67;;;;;;;;;;4960854;28;20215;-63
2022/11/05 01:06:20;;;;;;;3.60;3.30;;;;;;;;;;4972731;28;20319;-62
2022/11/05 01:08:48;;;;;;;3.23;3.03;;;;;;;;;;4960820;28;20211;-63
2022/11/05 01:11:31;;;;;;;3.73;3.17;;;;;;;;;;4980676;28;20775;-63
2022/11/05 01:14:04;;;;;;;3.70;3.40;;;;;;;;;;4961420;28;20732;-63
2022/11/05 01:16:32;;;;;;;3.47;3.27;;;;;;;;;;4961065;28;20211;-62
2022/11/05 01:19:00;;;;;;;3.90;3.60;;;;;;;;;;4961016;28;20265;-64
2022/11/05 01:21:27;;;;;;;4.07;3.77;;;;;;;;;;4968556;28;20339;-63
2022/11/05 01:23:55;;;;;;;3.63;3.33;;;;;;;;;;4955498;28;20218;-63
2022/11/05 01:26:22;;;;;;;4.10;3.80;;;;;;;;;;4960900;28;20982;-63
2022/11/05 01:28:53;;;;;;;5.33;4.83;;;;;;;;;;4963204;28;20214;-63
2022/11/05 01:31:21;;;;;;;4.80;4.40;;;;;;;;;;4963200;28;20223;-64
2022/11/05 01:33:48;;;;;;;5.93;5.27;;;;;;;;;;4947498;28;20215;-63
2022/11/05 01:36:16;;;;;;;5.03;4.50;;;;;;;;;;4973224;28;20321;-61
2022/11/05 01:38:44;;;;;;;5.13;4.63;;;;;;;;;;4972968;28;20215;-61
2022/11/05 01:41:11;;;;;;;4.90;4.50;;;;;;;;;;4971997;28;20322;-61
2022/11/05 01:44:05;;;;;;;5.23;4.77;;;;;;;;;;4978685;28;20306;-63
2022/11/05 01:46:38;;;;;;;4.57;4.23;;;;;;;;;;4956961;28;20675;-62
2022/11/05 01:49:12;;;;;;;5.03;4.63;;;;;;;;;;4963389;28;20239;-63
2022/11/05 01:51:40;;;;;;;4.93;4.50;;;;;;;;;;4972011;28;23231;-63
2022/11/05 01:54:10;;;;;;;5.53;4.97;;;;;;;;;;4965813;28;20204;-63
2022/11/05 01:56:38;;;;;;;5.37;4.90;;;;;;;;;;4970953;28;20215;-63
2022/11/05 01:59:09;;;;;;;5.90;5.40;;;;;;;;;;4970016;28;20223;-62
2022/11/05 02:01:37;;;;;;;5.43;4.93;;;;;;;;;;4966201;28;20318;-61
2022/11/05 02:04:06;;;;;;;6.73;6.10;;;;;;;;;;4964950;28;21132;-61
2022/11/05 02:06:36;;;;;;;4.90;4.50;;;;;;;;;;4966052;28;20235;-61
2022/11/05 02:09:10;;;;;;;4.53;4.13;;;;;;;;;;4973054;28;20246;-61
2022/11/05 02:11:38;;;;;;;5.23;4.73;;;;;;;;;;4987630;28;20341;-63
2022/11/05 02:14:06;;;;;;;5.43;4.93;;;;;;;;;;4974366;28;20240;-62
2022/11/05 02:17:09;;;;;;;5.40;4.70;;;;;;;;;;4968103;28;20338;-63
2022/11/05 02:19:54;;;;;;;4.93;4.50;;;;;;;;;;4885007;29;20755;-63
2022/11/05 02:22:22;;;;;;;5.20;4.80;;;;;;;;;;4954683;28;20268;-63
2022/11/05 02:25:04;;;;;;;5.47;4.97;;;;;;;;;;4956707;28;20255;-62
2022/11/05 02:27:41;;;;;;;5.33;4.70;;;;;;;;;;4956105;28;20949;-62
2022/11/05 02:30:26;;;;;;;5.23;4.83;;;;;;;;;;4962146;28;20230;-61
2022/11/05 02:32:53;;;;;;;4.60;4.20;;;;;;;;;;4957781;28;21423;-62
2022/11/05 02:35:27;;;;;;;4.83;4.43;;;;;;;;;;4964384;28;20295;-62
2022/11/05 02:38:08;;;;;;;5.83;4.63;;;;;;;;;;4987653;28;20299;-61
2022/11/05 02:40:51;;;;;;;4.70;4.30;;;;;;;;;;4971968;28;20820;-63
2022/11/05 02:43:21;;;;;;;3.97;3.67;;;;;;;;;;4967177;28;20226;-63
2022/11/05 02:46:02;;;;;;;4.33;3.93;;;;;;;;;;5000204;28;20235;-62
2022/11/05 02:48:37;;;;;;;3.93;3.67;;;;;;;;;;4983476;28;20226;-63
2022/11/05 02:51:12;;;;;;;4.33;3.93;;;;;;;;;;4978132;28;20231;-63
2022/11/05 02:53:42;;;;;;;3.50;3.20;;;;;;;;;;4974467;28;20203;-62
2022/11/05 02:56:17;;;;;;;3.47;3.17;;;;;;;;;;4959413;28;20452;-63
2022/11/05 02:58:45;;;;;;;3.87;3.57;;;;;;;;;;4960229;28;20215;-62
2022/11/05 03:01:12;;;;;;;3.50;3.30;;;;;;;;;;4952119;28;20421;-63
2022/11/05 03:03:44;;;;;;;3.80;3.50;;;;;;;;;;4950989;28;20307;-63
2022/11/05 03:06:11;;;;;;;3.50;3.30;;;;;;;;;;4964628;28;20236;-61
2022/11/05 03:08:57;;;;;;;3.70;3.40;;;;;;;;;;4955672;28;20221;-63
2022/11/05 03:11:29;;;;;;;4.00;3.70;;;;;;;;;;4952222;28;20225;-62
2022/11/05 03:14:15;;;;;;;3.63;3.37;;;;;;;;;;4943443;28;20212;-63
2022/11/05 03:16:48;;;;;;;4.47;3.30;;;;;;;;;;4957147;28;20411;-63
2022/11/05 03:19:30;;;;;;;3.97;3.67;;;;;;;;;;4957535;28;21623;-63
2022/11/05 03:22:02;;;;;;;3.57;3.27;;;;;;;;;;4973144;28;20215;-63
2022/11/05 03:24:31;;;;;;;3.60;3.30;;;;;;;;;;4950364;28;20212;-62
2022/11/05 03:26:59;;;;;;;3.53;3.30;;;;;;;;;;4959482;28;20791;-63
2022/11/05 03:29:29;;;;;;;3.27;3.07;;;;;;;;;;4954230;28;20285;-62
2022/11/05 03:31:58;;;;;;;3.50;2.90;;;;;;;;;;4954041;28;20208;-63
2022/11/05 03:34:29;;;;;;;3.50;2.80;;;;;;;;;;4955624;28;20203;-62
2022/11/05 03:36:56;;;;;;;3.17;2.97;;;;;;;;;;4975739;28;20207;-63
2022/11/05 03:39:28;;;;;;;2.80;2.60;;;;;;;;;;4956306;28;20213;-63
2022/11/05 03:41:57;;;;;;;3.27;2.97;;;;;;;;;;4964692;28;20287;-62
2022/11/05 03:44:29;;;;;;;3.20;2.90;;;;;;;;;;4964580;28;20218;-61
2022/11/05 03:47:00;;;;;;;2.97;2.77;;;;;;;;;;4958143;28;20329;-64
2022/11/05 03:49:31;;;;;;;3.80;3.50;;;;;;;;;;4956001;28;20823;-63
2022/11/05 03:52:11;;;;;;;3.60;3.30;;;;;;;;;;4953392;28;20211;-61
2022/11/05 03:54:38;;;;;;;3.80;3.50;;;;;;;;;;4962431;28;20215;-63
2022/11/05 03:57:15;;;;;;;4.17;3.83;;;;;;;;;;4969684;28;20361;-63
2022/11/05 03:59:46;;;;;;;3.50;3.20;;;;;;;;;;4948569;28;20232;-62
2022/11/05 04:02:15;;;;;;;3.07;2.87;;;;;;;;;;4968344;28;20329;-62
2022/11/05 04:04:42;;;;;;;4.07;3.20;;;;;;;;;;4968228;28;20226;-62
2022/11/05 04:17:05;;;;;;;3.03;2.73;;;;;;;;;;4979116;28;20210;-63
2022/11/05 04:18:17;;;;;;;2.50;2.30;;;;;;;;;;4969239;28;20207;-63
2022/11/05 04:26:22;;;;;;;2.93;2.73;;;;;;;;;;4973195;28;20223;-62
2022/11/05 04:31:36;;;;;;;4.40;4.00;;;;;;;;;;4974099;28;20318;-61
2022/11/05 04:34:04;;;;;;;3.20;2.77;;;;;;;;;;4958942;28;21699;-63
2022/11/05 04:36:31;;;;;;;3.20;2.90;;;;;;;;;;4969961;28;21456;-62
2022/11/05 04:38:59;;;;;;;2.63;2.40;;;;;;;;;;4958433;28;20203;-63
2022/11/05 04:41:26;;;;;;;3.00;2.80;;;;;;;;;;4960906;28;20788;-63
2022/11/05 04:43:53;;;;;;;3.10;2.90;;;;;;;;;;4969502;28;20900;-63
2022/11/05 04:46:20;;;;;;;4.10;3.80;;;;;;;;;;4979214;28;20698;-63
2022/11/05 04:48:48;;;;;;;3.10;2.90;;;;;;;;;;4978269;28;20569;-62
2022/11/05 04:51:15;;;;;;;2.93;2.73;;;;;;;;;;4978572;28;20310;-61
2022/11/05 04:53:43;;;;;;;2.40;2.30;;;;;;;;;;4976297;28;20210;-61
2022/11/05 04:56:11;;;;;;;2.30;2.20;;;;;;;;;;4975666;28;20765;-61
2022/11/05 04:58:40;;;;;;;2.37;2.27;;;;;;;;;;4960772;28;20771;-61
2022/11/05 05:01:11;;;;;;;3.33;2.63;;;;;;;;;;4973107;28;20223;-62
2022/11/05 05:03:39;;;;;;;5.33;4.77;;;;;;;;;;4948589;28;20211;-62
2022/11/05 05:06:06;;;;;;;5.07;4.53;;;;;;;;;;4963112;28;20330;-61
2022/11/05 05:08:35;;;;;;;3.50;3.20;;;;;;;;;;4978479;28;20336;-61
2022/11/05 05:11:04;;;;;;;2.33;2.13;;;;;;;;;;4979260;28;20320;-62
2022/11/05 05:13:31;;;;;;;2.40;2.27;;;;;;;;;;4984626;28;20307;-60
2022/11/05 05:15:58;;;;;;;2.40;2.20;;;;;;;;;;4971998;28;20303;-61
2022/11/05 05:18:26;;;;;;;2.10;2.00;;;;;;;;;;4987918;28;20724;-62
2022/11/05 05:23:48;;;;;;;2.40;2.30;;;;;;;;;;4982434;28;20262;-63
2022/11/05 05:26:16;;;;;;;2.40;2.30;;;;;;;;;;4963486;28;20811;-62
2022/11/05 05:28:43;;;;;;;2.70;2.50;;;;;;;;;;4964933;28;20237;-63
2022/11/05 05:31:11;;;;;;;3.50;2.00;;;;;;;;;;4956033;28;20222;-62
2022/11/05 05:33:38;;;;;;;2.07;1.97;;;;;;;;;;4958264;28;20287;-63
2022/11/05 05:36:06;;;;;;;1.90;1.80;;;;;;;;;;4973231;28;20724;-62
2022/11/05 05:38:37;;;;;;;2.47;2.27;;;;;;;;;;4979102;28;20227;-61
2022/11/05 05:41:05;;;;;;;2.20;2.00;;;;;;;;;;4979158;28;20223;-61
2022/11/05 05:43:33;;;;;;;7.40;4.60;;;;;;;;;;4978225;28;20221;-63
2022/11/05 05:46:07;;;;;;;3.63;2.87;;;;;;;;;;4973135;28;20307;-61
2022/11/05 05:48:35;;;;;;;2.30;2.20;;;;;;;;;;4955489;28;20350;-61
2022/11/05 05:51:11;;;;;;;2.33;2.23;;;;;;;;;;4965167;28;21616;-63
2022/11/05 05:53:38;;;;;;;2.90;2.70;;;;;;;;;;4959125;28;20951;-64
2022/11/05 05:56:06;;;;;;;2.00;1.90;;;;;;;;;;4952581;28;20264;-63
2022/11/05 05:58:35;;;;;;;2.03;1.93;;;;;;;;;;4954671;28;20684;-62
2022/11/05 06:01:07;;;;;;;3.40;2.17;;;;;;;;;;4959221;28;20338;-62
2022/11/05 06:03:39;;;;;;;2.37;1.83;;;;;;;;;;4958914;28;20211;-63
2022/11/05 06:06:11;;;;;;;2.90;1.70;;;;;;;;;;4959224;28;20208;-61
2022/11/05 06:08:39;;;;;;;1.70;1.60;;;;;;;;;;4969111;28;20217;-62
2022/11/05 06:11:07;;;;;;;3.30;3.10;;;;;;;;;;4975879;28;20238;-62
2022/11/05 06:13:35;;;;;;;2.17;2.07;;;;;;;;;;4956518;28;20297;-62
2022/11/05 06:16:04;;;;;;;2.93;2.73;;;;;;;;;;4971485;28;20871;-61
2022/11/05 06:18:31;;;;;;;2.40;2.20;;;;;;;;;;4953163;28;20232;-62
2022/11/05 06:21:06;;;;;;;2.10;1.90;;;;;;;;;;4961844;28;20237;-63
2022/11/05 06:23:38;;;;;;;2.20;2.10;;;;;;;;;;4958983;28;20710;-62
2022/11/05 06:26:06;;;;;;;2.50;2.30;;;;;;;;;;4955598;28;20298;-63
2022/11/05 06:28:35;;;;;;;2.30;2.20;;;;;;;;;;4973553;28;20233;-62
2022/11/05 06:31:02;;;;;;;2.63;2.43;;;;;;;;;;4953107;28;20779;-63
2022/11/05 06:33:30;;;;;;;3.10;2.90;;;;;;;;;;4957247;28;20208;-63
2022/11/05 06:35:58;;;;;;;2.27;2.17;;;;;;;;;;4957958;28;20211;-62
2022/11/05 06:38:26;;;;;;;2.30;2.20;;;;;;;;;;4978200;28;20226;-62
2022/11/05 06:40:53;;;;;;;1.87;1.73;;;;;;;;;;4959606;28;20236;-62
2022/11/05 06:43:21;;;;;;;1.57;1.50;;;;;;;;;;4977494;28;20208;-62
2022/11/05 06:45:49;;;;;;;2.77;2.57;;;;;;;;;;4958714;28;20222;-63
2022/11/05 06:48:16;;;;;;;2.10;2.00;;;;;;;;;;4951272;28;20959;-65
2022/11/05 06:50:44;;;;;;;1.60;1.50;;;;;;;;;;4949890;28;20882;-63
2022/11/05 06:53:12;;;;;;;1.90;1.80;;;;;;;;;;4950436;28;20670;-63
2022/11/05 06:55:40;;;;;;;5.93;5.00;;;;;;;;;;4972264;28;21210;-61
2022/11/05 06:58:07;;;;;;;10.60;8.50;;;;;;;;;;4956346;28;20226;-61
2022/11/05 07:00:35;;;;;;;3.93;3.47;;;;;;;;;;4939304;28;20232;-61
2022/11/05 07:03:07;;;;;;;2.37;2.17;;;;;;;;;;4948749;28;20223;-63
2022/11/05 07:05:38;;;;;;;2.80;2.60;;;;;;;;;;4948924;28;20215;-61
2022/11/05 07:08:06;;;;;;;3.87;2.07;;;;;;;;;;4934365;28;20415;-64
2022/11/05 07:10:34;;;;;;;2.77;2.57;;;;;;;;;;4947922;28;20239;-63
2022/11/05 07:13:01;;;;;;;4.57;3.30;;;;;;;;;;4947165;28;20208;-62
2022/11/05 07:15:37;;;;;;;3.90;2.97;;;;;;;;;;4948484;28;20203;-62
2022/11/05 07:18:08;;;;;;;2.87;2.67;;;;;;;;;;4971783;28;20222;-61
2022/11/05 07:20:35;;;;;;;3.63;2.90;;;;;;;;;;4987804;28;20288;-63
2022/11/05 07:23:09;;;;;;;3.10;2.80;;;;;;;;;;4976279;28;20259;-63
2022/11/05 07:25:37;;;;;;;2.60;2.40;;;;;;;;;;4967107;28;20227;-61
2022/11/05 07:28:05;;;;;;;10.53;6.07;;;;;;;;;;4968867;28;21204;-62
2022/11/05 07:30:34;;;;;;;4.03;3.30;;;;;;;;;;4974710;28;20235;-62
2022/11/05 07:33:01;;;;;;;2.83;2.63;;;;;;;;;;4967872;28;20413;-63
2022/11/05 07:35:29;;;;;;;1.40;1.40;;;;;;;;;;4964820;28;20218;-63
2022/11/05 07:37:57;;;;;;;4.10;1.20;;;;;;;;;;4986573;28;20800;-63
2022/11/05 07:40:26;;;;;;;1.77;1.67;;;;;;;;;;4970703;28;20314;-61
2022/11/05 07:42:55;;;;;;;1.20;1.20;;;;;;;;;;4962814;28;20731;-63
2022/11/05 07:45:23;;;;;;;1.20;1.20;;;;;;;;;;4968855;28;20212;-63
2022/11/05 07:47:53;;;;;;;1.07;1.07;;;;;;;;;;4966558;28;20271;-63
2022/11/05 07:50:23;;;;;;;1.47;0.90;;;;;;;;;;4961613;28;20238;-61
2022/11/05 07:52:51;;;;;;;1.03;0.90;;;;;;;;;;4965685;28;20208;-61
2022/11/05 07:55:20;;;;;;;0.90;0.90;;;;;;;;;;4960049;28;20353;-63
2022/11/05 07:57:48;;;;;;;0.90;0.90;;;;;;;;;;4987147;28;20292;-63
2022/11/05 08:00:17;;;;;;;1.00;1.00;;;;;;;;;;4963597;28;20676;-62
2022/11/05 08:02:44;;;;;;;1.00;1.00;;;;;;;;;;4970652;28;20725;-62
2022/11/05 08:05:12;;;;;;;2.03;1.87;;;;;;;;;;4970171;28;20409;-63
2022/11/05 08:07:39;;;;;;;1.30;1.30;;;;;;;;;;4970901;28;20314;-62
2022/11/05 08:10:07;;;;;;;3.27;3.07;;;;;;;;;;4965597;28;20899;-62
2022/11/05 08:12:34;;;;;;;2.97;1.50;;;;;;;;;;4970106;28;20234;-62
2022/11/05 08:15:02;;;;;;;1.17;1.17;;;;;;;;;;4968312;28;20231;-62
2022/11/05 08:17:29;;;;;;;1.10;1.10;;;;;;;;;;4966444;28;20207;-63
2022/11/05 08:19:56;;;;;;;0.90;0.90;;;;;;;;;;4964489;28;20262;-62
2022/11/05 08:22:24;;;;;;;0.83;0.83;;;;;;;;;;4986939;28;20212;-62
2022/11/05 08:24:51;;;;;;;0.90;0.90;;;;;;;;;;4960478;28;20306;-63
2022/11/05 08:27:18;;;;;;;2.27;1.80;;;;;;;;;;4969786;28;20250;-63
2022/11/05 08:29:46;;;;;;;1.13;1.10;;;;;;;;;;4960424;28;20229;-63
2022/11/05 08:32:13;;;;;;;1.03;1.03;;;;;;;;;;4965559;28;20705;-62
2022/11/05 08:34:41;;;;;;;1.10;1.10;;;;;;;;;;4964714;28;20294;-62
2022/11/05 08:37:08;;;;;;;2.07;1.97;;;;;;;;;;4962466;28;21531;-62
2022/11/05 08:39:35;;;;;;;1.30;1.30;;;;;;;;;;4966513;28;20485;-63
2022/11/05 08:42:02;;;;;;;2.83;1.93;;;;;;;;;;4968523;28;20547;-62
2022/11/05 08:44:30;;;;;;;1.23;1.23;;;;;;;;;;4973581;28;20682;-62
2022/11/05 08:46:58;;;;;;;1.70;1.60;;;;;;;;;;4976500;28;20239;-62
2022/11/05 08:49:25;;;;;;;1.70;1.60;;;;;;;;;;4997101;28;20291;-62
2022/11/05 08:51:53;;;;;;;1.90;1.80;;;;;;;;;;5001093;28;20222;-63
2022/11/05 08:54:20;;;;;;;2.60;1.83;;;;;;;;;;4978032;28;20333;-62
2022/11/05 08:56:47;;;;;;;2.13;1.90;;;;;;;;;;4961238;28;20303;-63
2022/11/05 08:59:15;;;;;;;1.90;1.80;;;;;;;;;;4968907;28;20238;-61
2022/11/05 09:01:43;;;;;;;1.90;1.80;;;;;;;;;;4969606;28;20570;-63
2022/11/05 09:04:10;;;;;;;3.60;3.30;;;;;;;;;;4966394;28;20252;-64
2022/11/05 09:06:38;;;;;;;7.00;5.40;;;;;;;;;;4963329;28;20207;-63
2022/11/05 09:09:05;;;;;;;8.53;5.53;;;;;;;;;;4964378;28;20241;-62
2022/11/05 09:11:32;;;;;;;9.90;4.53;;;;;;;;;;4969682;28;20713;-63
2022/11/05 09:14:19;;;;;;;3.77;3.37;;;;;;;;;;4970939;28;20691;-63
2022/11/05 09:16:47;;;;;;;2.60;2.40;;;;;;;;;;4965506;28;20210;-63
2022/11/05 09:19:14;;;;;;;2.10;1.97;;;;;;;;;;4977888;28;20424;-63
2022/11/05 09:21:41;;;;;;;2.27;2.17;;;;;;;;;;4968394;28;20200;-63
2022/11/05 09:24:09;;;;;;;2.00;1.90;;;;;;;;;;4965462;28;20294;-64
2022/11/05 09:26:36;;;;;;;2.00;1.90;;;;;;;;;;4964160;28;20246;-63
2022/11/05 09:29:03;;;;;;;2.30;2.10;;;;;;;;;;4963615;28;20229;-62
2022/11/05 09:31:31;;;;;;;2.43;2.30;;;;;;;;;;4965432;28;20326;-63
2022/11/05 09:33:58;;;;;;;2.30;2.20;;;;;;;;;;4963862;28;20283;-62
2022/11/05 09:36:25;;;;;;;2.60;2.40;;;;;;;;;;4978962;28;20208;-62
2022/11/05 09:38:53;;;;;;;4.70;4.30;;;;;;;;;;4992249;28;20291;-62
2022/11/05 09:41:29;;;;;;;3.13;2.93;;;;;;;;;;4978563;28;20310;-62
2022/11/05 09:44:18;;;;;;;3.90;3.60;;;;;;;;;;5001064;28;20238;-63
2022/11/05 09:46:48;;;;;;;3.70;3.40;;;;;;;;;;4978747;28;21474;-62
2022/11/05 09:49:23;;;;;;;6.73;5.97;;;;;;;;;;4962317;28;20350;-61
2022/11/05 09:51:52;;;;;;;3.80;3.50;;;;;;;;;;4974992;28;20642;-62
2022/11/05 09:54:21;;;;;;;4.60;4.20;;;;;;;;;;4961517;28;20286;-62
2022/11/05 09:56:48;;;;;;;4.43;4.07;;;;;;;;;;4963892;28;20652;-62
2022/11/05 09:59:43;;;;;;;4.40;4.00;;;;;;;;;;4963416;28;20868;-62
2022/11/05 10:02:25;;;;;;;4.00;3.70;;;;;;;;;;4965597;28;20677;-62
2022/11/05 10:04:56;;;;;;;3.93;3.63;;;;;;;;;;4970608;28;20204;-62
2022/11/05 10:07:26;;;;;;;4.50;4.10;;;;;;;;;;4976613;28;21024;-62
2022/11/05 10:09:56;;;;;;;4.00;3.70;;;;;;;;;;4967129;28;20223;-62
2022/11/05 10:12:23;;;;;;;5.13;4.13;;;;;;;;;;4990254;28;20363;-63
2022/11/05 10:15:03;;;;;;;4.60;4.20;;;;;;;;;;4966864;28;20203;-62
2022/11/05 10:17:32;;;;;;;5.10;4.70;;;;;;;;;;4969252;28;20213;-63
2022/11/05 10:20:14;;;;;;;5.00;4.60;;;;;;;;;;4972339;28;20230;-62
2022/11/05 10:22:41;;;;;;;5.20;4.70;;;;;;;;;;4991470;28;20210;-62
2022/11/05 10:25:17;;;;;;;5.60;5.00;;;;;;;;;;4963423;28;20212;-63
2022/11/05 10:27:52;;;;;;;5.90;5.40;;;;;;;;;;4968547;28;20322;-63
2022/11/05 10:30:21;;;;;;;5.10;4.70;;;;;;;;;;4962497;28;20385;-63
2022/11/05 10:32:51;;;;;;;5.23;4.30;;;;;;;;;;4967563;28;20980;-62
2022/11/05 10:35:21;;;;;;;3.90;3.60;;;;;;;;;;4979367;28;20520;-63
2022/11/05 10:37:49;;;;;;;3.00;2.80;;;;;;;;;;4966951;28;20220;-63
2022/11/05 10:40:25;;;;;;;3.00;2.80;;;;;;;;;;4987740;28;20238;-63
2022/11/05 10:43:04;;;;;;;3.53;3.23;;;;;;;;;;4961225;28;20255;-63
2022/11/05 10:45:40;;;;;;;3.87;3.47;;;;;;;;;;4983667;28;20248;-63
2022/11/05 10:48:20;;;;;;;3.80;3.40;;;;;;;;;;4982126;28;20677;-63
2022/11/05 10:50:48;;;;;;;4.10;3.80;;;;;;;;;;4984110;28;20255;-63
2022/11/05 10:53:33;;;;;;;5.33;4.77;;;;;;;;;;4976770;28;20303;-63
2022/11/05 10:56:01;;;;;;;5.00;4.60;;;;;;;;;;4965009;28;20203;-63
2022/11/05 10:58:34;;;;;;;6.20;5.50;;;;;;;;;;4972331;28;20204;-62
2022/11/05 11:01:03;;;;;;;6.90;6.20;;;;;;;;;;4984579;28;21003;-62
2022/11/05 11:03:43;;;;;;;6.67;5.90;;;;;;;;;;4984624;28;20314;-63
2022/11/05 11:06:16;;;;;;;6.50;6.00;;;;;;;;;;4973066;28;20285;-64
2022/11/05 11:08:45;;;;;;;7.20;6.50;;;;;;;;;;4984850;28;20223;-63
2022/11/05 11:11:24;;;;;;;7.33;6.33;;;;;;;;;;4970097;28;20302;-63
2022/11/05 11:13:58;;;;;;;7.40;6.70;;;;;;;;;;4968638;28;20219;-63
2022/11/05 11:16:27;;;;;;;8.03;7.30;;;;;;;;;;4961677;28;20595;-62
2022/11/05 11:18:57;;;;;;;8.47;7.60;;;;;;;;;;4969934;28;20569;-61
2022/11/05 11:21:25;;;;;;;9.03;7.80;;;;;;;;;;4963520;28;20234;-62
2022/11/05 11:24:05;;;;;;;6.13;5.63;;;;;;;;;;4968837;28;20690;-63
2022/11/05 11:26:35;;;;;;;9.43;8.00;;;;;;;;;;4970051;28;20757;-62
2022/11/05 11:29:15;;;;;;;8.03;7.23;;;;;;;;;;4957389;28;20284;-61
2022/11/05 11:31:42;;;;;;;9.17;7.90;;;;;;;;;;4966623;28;20677;-63
2022/11/05 11:34:22;;;;;;;8.23;7.43;;;;;;;;;;4968187;28;20323;-63
2022/11/05 11:36:50;;;;;;;6.50;5.90;;;;;;;;;;4982026;28;20203;-61
2022/11/05 11:39:19;;;;;;;6.10;5.50;;;;;;;;;;4990289;28;20203;-63
2022/11/05 11:41:51;;;;;;;5.67;5.17;;;;;;;;;;4970844;28;20227;-63
2022/11/05 11:44:25;;;;;;;7.37;6.67;;;;;;;;;;4966328;28;20319;-63
2022/11/05 11:46:55;;;;;;;5.40;4.90;;;;;;;;;;4969303;28;20602;-62
2022/11/05 11:49:37;;;;;;;5.33;4.83;;;;;;;;;;4965033;28;20836;-63
2022/11/05 11:52:10;;;;;;;5.20;4.70;;;;;;;;;;4962359;28;20307;-63
2022/11/05 11:54:39;;;;;;;6.33;5.70;;;;;;;;;;4969493;28;20209;-62
2022/11/05 11:57:21;;;;;;;6.87;6.27;;;;;;;;;;4963310;28;20207;-61
2022/11/05 11:59:48;;;;;;;6.83;6.23;;;;;;;;;;4962612;28;20654;-62
2022/11/05 12:02:46;;;;;;;6.23;5.63;;;;;;;;;;4962934;28;20207;-62
2022/11/05 12:05:23;;;;;;;6.20;5.60;;;;;;;;;;4969341;28;20219;-63
2022/11/05 12:07:52;;;;;;;6.30;5.43;;;;;;;;;;4965715;28;20211;-63
2022/11/05 12:10:38;;;;;;;5.80;5.30;;;;;;;;;;4965859;28;20318;-63
2022/11/05 12:13:18;;;;;;;6.40;5.80;;;;;;;;;;4968075;28;20203;-63
2022/11/05 12:15:54;;;;;;;6.30;5.70;;;;;;;;;;4967388;28;20223;-63
2022/11/05 12:18:33;;;;;;;6.77;6.07;;;;;;;;;;4965299;28;20215;-63
2022/11/05 12:21:00;;;;;;;7.40;6.70;;;;;;;;;;4971530;28;20714;-62
2022/11/05 12:23:43;;;;;;;6.93;6.33;;;;;;;;;;4969397;28;20965;-62
2022/11/05 12:26:21;;;;;;;6.20;5.60;;;;;;;;;;4963543;28;20234;-63
2022/11/05 12:29:08;;;;;;;5.43;4.93;;;;;;;;;;4965539;28;20228;-63
2022/11/05 12:32:06;;;;;;;5.63;5.13;;;;;;;;;;4968192;28;20272;-63
2022/11/05 12:34:42;;;;;;;5.10;4.70;;;;;;;;;;4972258;28;20642;-63
2022/11/05 12:37:16;;;;;;;6.20;5.60;;;;;;;;;;4969945;28;20272;-63
2022/11/05 12:40:03;;;;;;;3.97;3.67;;;;;;;;;;4965968;28;20677;-63
2022/11/05 12:42:49;;;;;;;4.50;4.10;;;;;;;;;;4933748;28;20212;-63
2022/11/05 12:45:29;;;;;;;4.80;4.30;;;;;;;;;;4979609;28;20669;-62
2022/11/05 12:48:15;;;;;;;4.80;4.30;;;;;;;;;;4981216;28;20305;-63
2022/11/05 12:50:58;;;;;;;3.97;3.67;;;;;;;;;;4981100;28;20258;-62
2022/11/05 12:53:44;;;;;;;4.47;4.07;;;;;;;;;;4983934;28;20285;-63
2022/11/05 12:56:24;;;;;;;4.00;3.70;;;;;;;;;;4980546;28;20238;-63
2022/11/05 12:58:57;;;;;;;4.00;3.70;;;;;;;;;;4967741;28;20837;-63
2022/11/05 13:01:34;;;;;;;3.67;3.37;;;;;;;;;;4972614;28;20306;-63
2022/11/05 13:04:07;;;;;;;3.80;3.50;;;;;;;;;;4968783;28;20211;-62
2022/11/05 13:06:39;;;;;;;4.97;4.47;;;;;;;;;;4965632;28;20272;-62
2022/11/05 13:09:22;;;;;;;4.83;3.87;;;;;;;;;;4967924;28;20293;-61
2022/11/05 13:11:49;;;;;;;5.30;4.80;;;;;;;;;;4970701;28;21008;-63
2022/11/05 13:14:20;;;;;;;7.47;5.83;;;;;;;;;;4971258;28;20222;-63
2022/11/05 13:16:54;;;;;;;5.97;5.03;;;;;;;;;;4984565;28;20207;-62
2022/11/05 13:19:27;;;;;;;5.27;4.77;;;;;;;;;;4966800;28;20230;-63
2022/11/05 13:22:15;;;;;;;5.53;5.03;;;;;;;;;;4971248;28;20211;-64
2022/11/05 13:24:49;;;;;;;5.47;4.50;;;;;;;;;;4971122;28;20880;-64
2022/11/05 13:27:36;;;;;;;5.77;5.17;;;;;;;;;;4966643;28;20669;-63
2022/11/05 13:30:04;;;;;;;4.60;4.17;;;;;;;;;;4967552;28;20239;-63
2022/11/05 13:32:35;;;;;;;7.63;5.00;;;;;;;;;;4968479;28;20218;-64
2022/11/05 13:35:04;;;;;;;6.07;5.10;;;;;;;;;;4966404;28;20239;-63
2022/11/05 13:40:24;;;;;;;6.53;5.47;;;;;;;;;;5004368;28;20322;-62
2022/11/05 13:42:52;;;;;;;6.60;4.90;;;;;;;;;;4981337;28;20207;-62
2022/11/05 13:45:19;;;;;;;6.17;5.40;;;;;;;;;;4984213;28;20257;-63
2022/11/05 13:47:53;;;;;;;7.40;6.63;;;;;;;;;;4970216;28;20208;-63
2022/11/05 13:50:27;;;;;;;7.23;6.43;;;;;;;;;;4973759;28;20227;-63
2022/11/05 13:52:57;;;;;;;6.67;6.07;;;;;;;;;;4978807;28;20204;-64
2022/11/05 13:55:32;;;;;;;7.30;6.37;;;;;;;;;;4994596;28;20260;-63
2022/11/05 13:58:12;;;;;;;7.77;6.23;;;;;;;;;;4977512;28;20278;-62
2022/11/05 14:00:48;;;;;;;6.00;5.40;;;;;;;;;;4977072;28;20245;-62
2022/11/05 14:03:17;;;;;;;5.73;5.20;;;;;;;;;;4993483;28;20234;-63
2022/11/05 14:05:51;;;;;;;6.80;6.10;;;;;;;;;;4971155;28;20543;-63
2022/11/05 14:08:21;;;;;;;6.93;5.60;;;;;;;;;;4978691;28;20285;-63
2022/11/05 14:10:57;;;;;;;6.57;5.87;;;;;;;;;;4975585;28;20366;-63
2022/11/05 14:13:28;;;;;;;7.47;5.70;;;;;;;;;;4973605;28;20451;-62
2022/11/05 14:16:15;;;;;;;6.80;6.10;;;;;;;;;;4992974;28;20244;-63
2022/11/05 14:18:48;;;;;;;6.83;6.03;;;;;;;;;;4972675;28;20204;-63
2022/11/05 14:21:29;;;;;;;6.83;6.03;;;;;;;;;;4979096;28;20242;-63
2022/11/05 14:24:16;;;;;;;7.30;6.40;;;;;;;;;;4977717;28;20278;-63
2022/11/05 14:26:44;;;;;;;13.07;9.80;;;;;;;;;;4975608;28;20287;-63
2022/11/05 14:29:20;;;;;;;8.50;6.20;;;;;;;;;;4969354;28;20258;-63
2022/11/05 14:31:48;;;;;;;7.33;5.57;;;;;;;;;;4974981;28;20250;-63
2022/11/05 14:34:41;;;;;;;6.93;6.07;;;;;;;;;;4989561;28;20920;-63
2022/11/05 14:37:11;;;;;;;6.53;5.77;;;;;;;;;;4973369;28;20214;-61
2022/11/05 14:39:39;;;;;;;6.77;5.67;;;;;;;;;;4991812;28;20231;-63
2022/11/05 14:42:20;;;;;;;7.80;6.07;;;;;;;;;;4968106;28;21681;-63
2022/11/05 14:45:03;;;;;;;6.77;5.50;;;;;;;;;;4977645;28;20239;-63
2022/11/05 14:47:32;;;;;;;6.27;5.20;;;;;;;;;;4988275;28;20264;-63
2022/11/05 14:50:02;;;;;;;6.17;5.37;;;;;;;;;;4981305;28;20318;-63
2022/11/05 14:52:30;;;;;;;5.83;4.83;;;;;;;;;;4988819;28;20680;-63
2022/11/05 14:54:58;;;;;;;6.23;5.30;;;;;;;;;;4996823;28;20239;-63
2022/11/05 14:57:49;;;;;;;6.13;4.57;;;;;;;;;;4975783;28;21208;-63
2022/11/05 15:00:29;;;;;;;5.07;4.57;;;;;;;;;;4961565;28;20315;-63
2022/11/05 15:02:57;;;;;;;4.77;4.37;;;;;;;;;;4971125;28;20214;-63
2022/11/05 15:05:34;;;;;;;5.03;4.53;;;;;;;;;;4973200;28;20199;-63
2022/11/05 15:08:20;;;;;;;5.93;5.17;;;;;;;;;;4972393;28;20214;-64
2022/11/05 15:10:48;;;;;;;6.50;5.87;;;;;;;;;;4973304;28;20349;-63
2022/11/05 15:13:30;;;;;;;6.97;5.90;;;;;;;;;;4976854;28;20604;-63
2022/11/05 15:16:00;;;;;;;8.27;6.13;;;;;;;;;;4970700;28;20461;-60
2022/11/05 15:18:39;;;;;;;8.17;6.03;;;;;;;;;;4953236;28;20214;-62
2022/11/05 15:21:08;;;;;;;6.47;5.53;;;;;;;;;;4941093;28;20362;-63
2022/11/05 15:23:38;;;;;;;8.37;6.37;;;;;;;;;;4962664;28;20342;-62
2022/11/05 15:26:12;;;;;;;6.90;5.97;;;;;;;;;;4951779;28;20222;-62
2022/11/05 15:28:41;;;;;;;8.07;6.47;;;;;;;;;;4945385;28;20208;-62
2022/11/05 15:31:12;;;;;;;7.80;7.00;;;;;;;;;;4948346;28;20223;-63
2022/11/05 15:33:40;;;;;;;8.90;7.20;;;;;;;;;;4947352;28;20204;-64
2022/11/05 15:36:19;;;;;;;8.23;7.27;;;;;;;;;;4953032;28;20207;-62
2022/11/05 15:38:49;;;;;;;8.73;7.57;;;;;;;;;;4964383;28;20207;-61
2022/11/05 15:41:36;;;;;;;11.73;8.30;;;;;;;;;;4963269;28;20560;-63
2022/11/05 15:44:04;;;;;;;9.87;8.30;;;;;;;;;;4955456;28;20310;-66
2022/11/05 15:46:31;;;;;;;13.37;8.93;;;;;;;;;;4959953;28;20314;-61
2022/11/05 15:49:05;;;;;;;12.43;9.43;;;;;;;;;;4949033;28;20235;-63
2022/11/05 15:51:34;;;;;;;11.33;9.03;;;;;;;;;;4935640;28;20792;-63
2022/11/05 15:54:03;;;;;;;11.40;9.47;;;;;;;;;;4947985;28;20300;-62
2022/11/05 15:56:52;;;;;;;95.43;16.73;;;;;;;;;;4947414;28;20211;-61